createdAt,value
2023-01-04T00:01:27.793Z,101847.53
2023-01-04T00:03:54.533Z,101851.81
2023-01-04T00:06:21.748Z,101862.38
2023-01-04T00:08:49.621Z,101858.84
2023-01-04T00:11:20.455Z,101857.91
2023-01-04T00:13:48.484Z,101854.41
2023-01-04T00:16:17.089Z,101853.50
2023-01-04T00:18:44.278Z,101858.72
2023-01-04T00:21:12.805Z,101856.97
2023-01-04T00:23:40.189Z,101851.28
2023-01-04T00:26:07.987Z,101847.06
2023-01-04T00:28:34.910Z,101846.00
2023-01-04T00:31:05.475Z,101843.56
2023-01-04T00:33:33.172Z,101842.69
2023-01-04T00:36:07.340Z,101840.94
2023-01-04T00:38:34.527Z,101848.88
2023-01-04T00:41:01.794Z,101853.25
2023-01-04T00:43:28.773Z,101846.28
2023-01-04T00:45:55.545Z,101854.03
2023-01-04T00:48:22.354Z,101854.81
2023-01-04T00:50:49.552Z,101860.84
2023-01-04T00:53:16.792Z,101861.13
2023-01-04T00:55:43.551Z,101862.94
2023-01-04T00:58:10.384Z,101854.31
2023-01-04T01:00:37.289Z,101853.34
2023-01-04T01:03:04.572Z,101861.28
2023-01-04T01:05:33.265Z,101863.66
2023-01-04T01:08:19.992Z,101872.44
2023-01-04T01:10:46.996Z,101874.19
2023-01-04T01:13:15.664Z,101877.69
2023-01-04T01:15:42.544Z,101875.34
2023-01-04T01:18:09.836Z,101880.00
2023-01-04T01:20:40.916Z,101879.03
2023-01-04T01:23:07.733Z,101879.06
2023-01-04T01:25:34.516Z,101885.06
2023-01-04T01:28:01.209Z,101880.81
2023-01-04T01:30:27.929Z,101876.47
2023-01-04T01:32:54.636Z,101877.97
2023-01-04T01:35:21.408Z,101880.66
2023-01-04T01:37:48.067Z,101883.09
2023-01-04T01:40:14.860Z,101883.56
2023-01-04T01:42:41.576Z,101877.41
2023-01-04T01:45:22.769Z,101887.72
2023-01-04T01:47:50.367Z,101877.19
2023-01-04T01:50:28.529Z,101884.84
2023-01-04T01:52:57.597Z,101885.78
2023-01-04T01:55:24.684Z,101892.16
2023-01-04T01:57:53.516Z,101893.28
2023-01-04T02:00:20.510Z,101895.66
2023-01-04T02:02:55.059Z,101883.66
2023-01-04T02:05:22.145Z,101890.09
2023-01-04T02:07:49.905Z,101881.59
2023-01-04T02:10:17.140Z,101876.41
2023-01-04T02:12:45.375Z,101880.06
2023-01-04T02:15:13.761Z,101883.47
2023-01-04T02:17:47.159Z,101889.03
2023-01-04T02:20:19.825Z,101880.84
2023-01-04T02:22:49.811Z,101882.22
2023-01-04T02:25:45.763Z,101888.75
2023-01-04T02:28:36.981Z,101890.53
2023-01-04T02:31:22.385Z,101885.56
2023-01-04T02:33:49.264Z,101885.25
2023-01-04T02:36:19.011Z,101878.66
2023-01-04T02:39:03.182Z,101878.94
2023-01-04T02:41:37.027Z,101875.66
2023-01-04T02:44:35.739Z,101873.84
2023-01-04T02:47:42.609Z,101876.47
2023-01-04T02:50:33.632Z,101872.06
2023-01-04T02:53:06.464Z,101867.16
2023-01-04T02:55:54.830Z,101862.78
2023-01-04T02:58:24.698Z,101865.22
2023-01-04T03:01:18.704Z,101860.22
2023-01-04T03:04:08.109Z,101870.41
2023-01-04T03:06:40.756Z,101873.09
2023-01-04T03:09:22.835Z,101867.63
2023-01-04T03:12:21.659Z,101867.22
2023-01-04T03:14:52.426Z,101866.75
2023-01-04T03:17:21.607Z,101869.50
2023-01-04T03:19:52.048Z,101873.50
2023-01-04T03:22:39.379Z,101881.16
2023-01-04T03:25:26.157Z,101857.84
2023-01-04T03:28:12.148Z,101867.00
2023-01-04T03:31:01.275Z,101861.09
2023-01-04T03:33:46.614Z,101856.59
2023-01-04T03:36:24.783Z,101863.09
2023-01-04T03:39:13.249Z,101869.62
2023-01-04T03:42:21.808Z,101867.47
2023-01-04T03:45:10.471Z,101864.19
2023-01-04T03:48:14.261Z,101861.84
2023-01-04T03:50:52.362Z,101862.06
2023-01-04T03:53:19.725Z,101858.75
2023-01-04T03:55:47.303Z,101867.66
2023-01-04T03:58:14.392Z,101863.84
2023-01-04T04:00:41.295Z,101868.69
2023-01-04T04:03:08.638Z,101867.97
2023-01-04T04:05:58.055Z,101868.59
2023-01-04T04:08:24.975Z,101864.16
2023-01-04T04:10:51.849Z,101872.66
2023-01-04T04:13:18.597Z,101864.22
2023-01-04T04:15:45.410Z,101865.06
2023-01-04T04:18:12.227Z,101868.16
2023-01-04T04:20:39.078Z,101857.13
2023-01-04T04:23:05.796Z,101866.91
2023-01-04T04:25:32.580Z,101870.09
2023-01-04T04:27:59.343Z,101865.84
2023-01-04T04:30:26.098Z,101866.72
2023-01-04T04:32:52.841Z,101872.44
2023-01-04T04:35:19.556Z,101862.12
2023-01-04T04:37:46.231Z,101863.09
2023-01-04T04:40:33.089Z,101860.78
2023-01-04T04:42:59.745Z,101861.19
2023-01-04T04:45:27.028Z,101859.53
2023-01-04T04:47:53.780Z,101858.81
2023-01-04T04:50:22.790Z,101852.22
2023-01-04T04:52:54.139Z,101851.25
2023-01-04T04:55:23.031Z,101856.66
2023-01-04T04:57:49.909Z,101846.19
2023-01-04T05:00:16.750Z,101864.50
2023-01-04T05:02:43.649Z,101860.31
2023-01-04T05:05:11.715Z,101862.44
2023-01-04T05:07:38.433Z,101863.56
2023-01-04T05:10:05.413Z,101879.59
2023-01-04T05:12:55.814Z,101860.25
2023-01-04T05:15:24.971Z,101873.66
2023-01-04T05:17:51.634Z,101866.97
2023-01-04T05:20:18.332Z,101871.97
2023-01-04T05:22:45.093Z,101866.97
2023-01-04T05:25:12.394Z,101883.12
2023-01-04T05:27:39.247Z,101873.75
2023-01-04T05:30:24.653Z,101866.31
2023-01-04T05:32:51.749Z,101874.66
2023-01-04T05:35:18.384Z,101866.84
2023-01-04T05:37:45.068Z,101865.66
2023-01-04T05:40:12.787Z,101862.12
2023-01-04T05:42:39.522Z,101858.94
2023-01-04T05:45:06.712Z,101856.59
2023-01-04T05:47:33.679Z,101861.19
2023-01-04T05:50:00.386Z,101858.44
2023-01-04T05:52:27.357Z,101867.41
2023-01-04T05:54:54.174Z,101858.62
2023-01-04T05:57:21.186Z,101856.31
2023-01-04T05:59:47.881Z,101861.22
2023-01-04T06:02:16.694Z,101860.44
2023-01-04T06:04:43.568Z,101861.66
2023-01-04T06:07:10.310Z,101861.41
2023-01-04T06:09:37.010Z,101863.03
2023-01-04T06:12:03.893Z,101869.88
2023-01-04T06:14:30.795Z,101868.66
2023-01-04T06:16:57.493Z,101875.19
2023-01-04T06:19:24.215Z,101872.00
2023-01-04T06:21:51.144Z,101871.53
2023-01-04T06:24:17.912Z,101883.56
2023-01-04T06:26:44.709Z,101881.03
2023-01-04T06:29:11.565Z,101881.16
2023-01-04T06:31:38.260Z,101881.81
2023-01-04T06:34:04.946Z,101887.06
2023-01-04T06:36:31.657Z,101893.31
2023-01-04T06:38:58.773Z,101898.34
2023-01-04T06:41:25.877Z,101900.59
2023-01-04T06:43:52.634Z,101900.28
2023-01-04T06:46:21.689Z,101902.22
2023-01-04T06:48:48.511Z,101902.53
2023-01-04T06:51:15.257Z,101903.44
2023-01-04T06:53:42.016Z,101906.78
2023-01-04T06:56:09.527Z,101907.00
2023-01-04T06:58:36.890Z,101906.44
2023-01-04T07:01:04.086Z,101924.59
2023-01-04T07:03:30.795Z,101912.78
2023-01-04T07:05:57.645Z,101903.75
2023-01-04T07:08:24.325Z,101900.78
2023-01-04T07:10:51.057Z,101898.75
2023-01-04T07:13:17.722Z,101908.66
2023-01-04T07:15:44.545Z,101915.59
2023-01-04T07:18:11.464Z,101904.66
2023-01-04T07:20:38.819Z,101900.59
2023-01-04T07:23:06.144Z,101898.53
2023-01-04T07:25:32.995Z,101912.41
2023-01-04T07:28:03.151Z,101908.59
2023-01-04T07:30:34.279Z,101906.12
2023-01-04T07:33:01.146Z,101909.22
2023-01-04T07:35:28.059Z,101909.16
2023-01-04T07:37:58.588Z,101907.94
2023-01-04T07:40:26.582Z,101900.84
2023-01-04T07:42:59.680Z,101901.78
2023-01-04T07:45:27.015Z,101902.44
2023-01-04T07:47:53.820Z,101901.72
2023-01-04T07:50:22.740Z,101901.13
2023-01-04T07:52:49.522Z,101909.16
2023-01-04T07:55:19.467Z,101901.97
2023-01-04T07:57:46.227Z,101902.16
2023-01-04T08:00:13.200Z,101896.78
2023-01-04T08:02:40.116Z,101901.13
2023-01-04T08:05:07.141Z,101910.66
2023-01-04T08:07:33.916Z,101901.28
2023-01-04T08:10:00.912Z,101917.50
2023-01-04T08:12:28.096Z,101920.06
2023-01-04T08:14:54.821Z,101902.41
2023-01-04T08:17:21.495Z,101897.41
2023-01-04T08:19:48.234Z,101899.03
2023-01-04T08:22:14.956Z,101900.81
2023-01-04T08:24:42.128Z,101900.53
2023-01-04T08:27:08.789Z,101896.34
2023-01-04T08:29:35.719Z,101899.31
2023-01-04T08:32:02.667Z,101900.09
2023-01-04T08:34:30.084Z,101900.53
2023-01-04T08:36:56.846Z,101899.56
2023-01-04T08:39:23.544Z,101907.87
2023-01-04T08:41:59.694Z,101894.00
2023-01-04T08:44:28.169Z,101902.41
2023-01-04T08:46:55.192Z,101893.41
2023-01-04T08:49:22.660Z,101896.72
2023-01-04T08:51:49.359Z,101904.13
2023-01-04T08:54:16.146Z,101897.41
2023-01-04T08:56:43.329Z,101897.00
2023-01-04T08:59:10.969Z,101901.06
2023-01-04T09:01:37.888Z,101903.69
2023-01-04T09:04:04.906Z,101901.06
2023-01-04T09:06:31.918Z,101885.81
2023-01-04T09:08:58.866Z,101898.28
2023-01-04T09:11:26.287Z,101886.91
2023-01-04T09:14:04.362Z,101900.66
2023-01-04T09:16:35.682Z,101892.44
2023-01-04T09:19:02.579Z,101889.25
2023-01-04T09:21:29.339Z,101882.84
2023-01-04T09:23:57.229Z,101885.62
2023-01-04T09:26:24.081Z,101877.59
2023-01-04T09:28:52.188Z,101873.75
2023-01-04T09:31:21.695Z,101879.16
2023-01-04T09:34:13.454Z,101869.31
2023-01-04T09:36:35.223Z,101880.53
2023-01-04T09:39:01.976Z,101866.41
2023-01-04T09:41:30.345Z,101862.84
2023-01-04T09:43:59.070Z,101863.13
2023-01-04T09:46:40.060Z,101857.91
2023-01-04T09:49:25.087Z,101849.97
2023-01-04T09:51:58.050Z,101843.13
2023-01-04T09:57:01.133Z,101831.69
2023-01-04T09:59:32.327Z,101824.03
2023-01-04T10:02:01.967Z,101827.66
2023-01-04T10:04:40.183Z,101809.94
2023-01-04T10:07:09.686Z,101800.50
2023-01-04T10:09:36.355Z,101803.06
2023-01-04T10:12:22.220Z,101792.09
2023-01-04T10:14:48.833Z,101790.63
2023-01-04T10:18:13.759Z,101797.81
2023-01-04T10:23:31.278Z,101788.03
2023-01-04T10:26:01.339Z,101776.09
2023-01-04T10:28:31.237Z,101770.72
2023-01-04T10:31:39.475Z,101759.34
2023-01-04T10:34:28.188Z,101757.59
2023-01-04T10:36:59.556Z,101762.37
2023-01-04T10:39:32.877Z,101762.37
2023-01-04T10:42:04.911Z,101754.84
2023-01-04T10:44:47.383Z,101753.56
2023-01-04T10:47:20.291Z,101755.47
2023-01-04T10:49:53.856Z,101754.31
2023-01-04T10:52:28.289Z,101728.56
2023-01-04T10:54:58.576Z,101731.97
2023-01-04T10:57:27.308Z,101718.03
2023-01-04T10:59:54.024Z,101708.81
2023-01-04T11:02:42.067Z,101702.34
2023-01-04T11:05:21.103Z,101691.91
2023-01-04T11:08:03.509Z,101691.25
2023-01-04T11:10:36.119Z,101686.66
2023-01-04T11:13:03.428Z,101692.03
2023-01-04T11:15:30.614Z,101695.28
2023-01-04T11:17:58.861Z,101686.47
2023-01-04T11:20:27.163Z,101682.53
2023-01-04T11:23:04.451Z,101673.00
2023-01-04T11:25:37.190Z,101669.62
2023-01-04T11:28:24.454Z,101660.13
2023-01-04T11:30:54.356Z,101661.81
2023-01-04T11:33:22.554Z,101655.62
2023-01-04T11:35:50.587Z,101653.34
2023-01-04T11:38:18.974Z,101641.28
2023-01-04T11:40:56.957Z,101644.06
2023-01-04T11:43:24.294Z,101630.97
2023-01-04T11:46:04.520Z,101631.00
2023-01-04T11:48:38.918Z,101630.09
2023-01-04T11:51:06.639Z,101615.00
2023-01-04T11:53:35.432Z,101623.66
2023-01-04T11:56:17.223Z,101618.12
2023-01-04T11:58:45.197Z,101615.34
2023-01-04T12:01:23.237Z,101610.63
2023-01-04T12:03:50.242Z,101607.94
2023-01-04T12:06:30.338Z,101602.34
2023-01-04T12:08:57.059Z,101591.50
2023-01-04T12:11:28.771Z,101589.63
2023-01-04T12:13:55.675Z,101597.00
2023-01-04T12:16:29.712Z,101591.66
2023-01-04T12:18:56.614Z,101592.41
2023-01-04T12:21:24.817Z,101592.50
2023-01-04T12:23:54.693Z,101586.09
2023-01-04T12:26:23.546Z,101583.38
2023-01-04T12:28:54.170Z,101577.69
2023-01-04T12:31:21.937Z,101569.16
2023-01-04T12:33:54.961Z,101556.97
2023-01-04T12:36:43.171Z,101555.56
2023-01-04T12:39:13.292Z,101546.41
2023-01-04T12:41:39.982Z,101546.31
2023-01-04T12:44:25.408Z,101532.81
2023-01-04T12:47:11.086Z,101528.81
2023-01-04T12:49:44.715Z,101530.03
2023-01-04T12:55:00.548Z,101526.62
2023-01-04T12:57:37.723Z,101531.28
2023-01-04T13:00:14.804Z,101530.31
2023-01-04T13:02:48.177Z,101530.47
2023-01-04T13:08:04.272Z,101509.22
2023-01-04T13:10:38.879Z,101509.91
2023-01-04T13:13:08.387Z,101510.84
2023-01-04T13:15:35.040Z,101507.53
2023-01-04T13:18:01.829Z,101500.66
2023-01-04T13:20:30.846Z,101504.56
2023-01-04T13:22:59.928Z,101493.81
2023-01-04T13:25:29.147Z,101481.88
2023-01-04T13:28:03.001Z,101483.94
2023-01-04T13:30:32.750Z,101475.31
2023-01-04T13:33:25.797Z,101476.25
2023-01-04T13:35:59.658Z,101480.34
2023-01-04T13:38:26.439Z,101479.44
2023-01-04T13:40:53.269Z,101473.44
2023-01-04T13:43:45.551Z,101476.34
2023-01-04T13:46:17.401Z,101476.06
2023-01-04T13:48:49.894Z,101480.19
2023-01-04T13:51:35.868Z,101479.06
2023-01-04T13:54:04.782Z,101469.19
2023-01-04T13:56:33.229Z,101468.53
2023-01-04T13:59:03.559Z,101468.91
2023-01-04T14:01:32.727Z,101467.06
2023-01-04T14:04:01.231Z,101464.25
2023-01-04T14:06:30.043Z,101459.66
2023-01-04T14:09:02.051Z,101464.06
2023-01-04T14:11:53.289Z,101465.13
2023-01-04T14:14:28.832Z,101458.94
2023-01-04T14:17:09.115Z,101450.72
2023-01-04T14:19:39.146Z,101451.25
2023-01-04T14:22:23.732Z,101453.22
2023-01-04T14:25:10.524Z,101441.69
2023-01-04T14:27:42.930Z,101445.09
2023-01-04T14:30:15.870Z,101438.97
2023-01-04T14:32:42.617Z,101427.41
2023-01-04T14:35:13.831Z,101432.94
2023-01-04T14:37:40.675Z,101436.47
2023-01-04T14:40:14.346Z,101436.72
2023-01-04T14:42:43.811Z,101431.81
2023-01-04T14:45:13.938Z,101434.84
2023-01-04T14:47:42.234Z,101424.09
2023-01-04T14:50:09.331Z,101424.38
2023-01-04T14:52:36.108Z,101436.75
2023-01-04T14:55:05.049Z,101432.72
2023-01-04T14:57:32.331Z,101426.81
2023-01-04T14:59:59.326Z,101419.72
2023-01-04T15:02:27.292Z,101420.75
2023-01-04T15:04:54.335Z,101422.53
2023-01-04T15:07:40.203Z,101428.97
2023-01-04T15:10:20.192Z,101426.28
2023-01-04T15:12:47.142Z,101423.87
2023-01-04T15:15:14.204Z,101424.88
2023-01-04T15:17:40.854Z,101416.09
2023-01-04T15:20:09.921Z,101425.91
2023-01-04T15:22:36.631Z,101420.59
2023-01-04T15:25:03.522Z,101419.69
2023-01-04T15:27:32.016Z,101423.28
2023-01-04T15:30:01.284Z,101417.72
2023-01-04T15:32:27.975Z,101415.28
2023-01-04T15:34:54.729Z,101410.94
2023-01-04T15:37:24.012Z,101410.06
2023-01-04T15:39:54.253Z,101410.06
2023-01-04T15:42:43.477Z,101409.19
2023-01-04T15:45:10.316Z,101408.31
2023-01-04T15:47:37.163Z,101415.34
2023-01-04T15:50:04.550Z,101418.88
2023-01-04T15:52:31.276Z,101412.72
2023-01-04T15:54:57.988Z,101409.91
2023-01-04T15:57:24.647Z,101419.06
2023-01-04T15:59:51.349Z,101409.63
2023-01-04T16:02:18.223Z,101408.97
2023-01-04T16:04:46.010Z,101409.66
2023-01-04T16:07:14.834Z,101407.78
2023-01-04T16:09:41.617Z,101397.34
2023-01-04T16:12:27.110Z,101409.50
2023-01-04T16:14:53.870Z,101407.00
2023-01-04T16:17:20.563Z,101412.53
2023-01-04T16:19:49.432Z,101400.06
2023-01-04T16:22:16.181Z,101399.59
2023-01-04T16:25:10.026Z,101400.63
2023-01-04T16:27:35.517Z,101392.31
2023-01-04T16:30:05.473Z,101395.16
2023-01-04T16:32:32.382Z,101384.75
2023-01-04T16:34:59.261Z,101389.16
2023-01-04T16:37:28.553Z,101383.97
2023-01-04T16:40:12.584Z,101383.88
2023-01-04T16:42:40.004Z,101391.56
2023-01-04T16:45:07.378Z,101385.44
2023-01-04T16:47:43.125Z,101384.56
2023-01-04T16:50:14.291Z,101375.25
2023-01-04T16:52:46.885Z,101385.28
2023-01-04T16:55:15.270Z,101381.91
2023-01-04T16:57:45.269Z,101381.12
2023-01-04T17:00:12.309Z,101383.56
2023-01-04T17:02:39.482Z,101379.28
2023-01-04T17:05:06.504Z,101387.16
2023-01-04T17:07:33.594Z,101381.16
2023-01-04T17:10:01.398Z,101373.94
2023-01-04T17:15:42.034Z,101365.16
2023-01-04T17:18:02.762Z,101364.22
2023-01-04T17:20:29.518Z,101359.81
2023-01-04T17:22:56.305Z,101352.25
2023-01-04T17:25:23.049Z,101349.00
2023-01-04T17:27:49.877Z,101354.06
2023-01-04T17:30:16.629Z,101359.63
2023-01-04T17:32:43.334Z,101348.16
2023-01-04T17:35:10.078Z,101348.91
2023-01-04T17:37:36.816Z,101352.53
2023-01-04T17:40:03.964Z,101359.94
2023-01-04T17:42:32.567Z,101358.66
2023-01-04T17:45:00.343Z,101361.41
2023-01-04T17:47:27.944Z,101364.94
2023-01-04T17:49:54.616Z,101362.19
2023-01-04T17:52:29.031Z,101363.72
2023-01-04T17:54:57.806Z,101356.22
2023-01-04T17:57:24.487Z,101358.22
2023-01-04T17:59:51.412Z,101355.47
2023-01-04T18:02:18.273Z,101356.34
2023-01-04T18:04:46.104Z,101336.53
2023-01-04T18:09:44.369Z,101329.53
2023-01-04T18:12:11.119Z,101335.06
2023-01-04T18:14:38.751Z,101336.09
2023-01-04T18:17:06.474Z,101330.75
2023-01-04T18:19:33.248Z,101318.28
2023-01-04T18:22:00.163Z,101320.28
2023-01-04T18:24:42.338Z,101328.84
2023-01-04T18:27:22.497Z,101329.03
2023-01-04T18:29:50.776Z,101324.84
2023-01-04T18:32:17.539Z,101316.62
2023-01-04T18:34:47.228Z,101321.41
2023-01-04T18:37:16.269Z,101319.06
2023-01-04T18:39:43.350Z,101331.50
2023-01-04T18:42:10.045Z,101323.62
2023-01-04T18:44:43.842Z,101322.94
2023-01-04T18:47:12.740Z,101313.31
2023-01-04T18:49:39.506Z,101298.91
2023-01-04T18:52:06.311Z,101294.72
2023-01-04T18:54:33.004Z,101291.50
2023-01-04T18:57:01.218Z,101278.38
2023-01-04T18:59:31.441Z,101282.75
2023-01-04T19:02:02.006Z,101276.84
2023-01-04T19:04:33.265Z,101275.25
2023-01-04T19:07:00.221Z,101274.31
2023-01-04T19:09:27.265Z,101264.16
2023-01-04T19:11:53.957Z,101263.31
2023-01-04T19:14:20.735Z,101250.09
2023-01-04T19:16:47.429Z,101252.88
2023-01-04T19:19:14.209Z,101244.09
2023-01-04T19:21:40.891Z,101240.72
2023-01-04T19:24:07.712Z,101231.97
2023-01-04T19:26:34.441Z,101233.66
2023-01-04T19:29:01.072Z,101229.28
2023-01-04T19:31:27.904Z,101227.06
2023-01-04T19:33:54.537Z,101232.19
2023-01-04T19:36:21.903Z,101229.63
2023-01-04T19:38:48.594Z,101227.78
2023-01-04T19:41:19.979Z,101219.09
2023-01-04T19:43:46.917Z,101219.87
2023-01-04T19:46:13.837Z,101217.28
2023-01-04T19:48:40.920Z,101215.69
2023-01-04T19:51:09.619Z,101210.47
2023-01-04T19:53:36.707Z,101213.69
2023-01-04T19:56:03.600Z,101199.87
2023-01-04T19:58:30.528Z,101195.50
2023-01-04T20:00:57.559Z,101196.56
2023-01-04T20:03:26.500Z,101191.31
2023-01-04T20:05:53.487Z,101185.38
2023-01-04T20:08:20.278Z,101175.63
2023-01-04T20:10:55.696Z,101180.03
2023-01-04T20:13:22.774Z,101171.94
2023-01-04T20:15:49.514Z,101172.06
2023-01-04T20:18:16.199Z,101183.94
2023-01-04T20:20:43.905Z,101169.34
2023-01-04T20:23:11.291Z,101177.00
2023-01-04T20:25:38.824Z,101175.59
2023-01-04T20:28:05.552Z,101178.25
2023-01-04T20:30:32.428Z,101172.97
2023-01-04T20:32:59.506Z,101179.22
2023-01-04T20:35:26.365Z,101184.47
2023-01-04T20:37:59.099Z,101173.22
2023-01-04T20:40:34.233Z,101174.03
2023-01-04T20:43:36.197Z,101175.91
2023-01-04T20:46:06.288Z,101183.47
2023-01-04T20:48:33.017Z,101178.44
2023-01-04T20:50:59.741Z,101176.66
2023-01-04T20:53:26.501Z,101169.78
2023-01-04T20:55:53.199Z,101167.22
2023-01-04T20:58:19.898Z,101159.37
2023-01-04T21:00:47.870Z,101153.19
2023-01-04T21:03:15.375Z,101156.53
2023-01-04T21:05:43.619Z,101154.06
2023-01-04T21:08:11.142Z,101152.34
2023-01-04T21:10:40.805Z,101148.78
2023-01-04T21:13:08.804Z,101136.56
2023-01-04T21:15:36.165Z,101133.06
2023-01-04T21:18:03.509Z,101123.47
2023-01-04T21:20:30.690Z,101123.38
2023-01-04T21:22:57.434Z,101106.72
2023-01-04T21:25:24.181Z,101106.75
2023-01-04T21:27:50.859Z,101098.88
2023-01-04T21:30:17.579Z,101101.44
2023-01-04T21:32:44.622Z,101095.41
2023-01-04T21:35:11.402Z,101091.88
2023-01-04T21:37:38.168Z,101085.59
2023-01-04T21:40:05.140Z,101086.62
2023-01-04T21:42:31.880Z,101091.81
2023-01-04T21:44:58.626Z,101092.59
2023-01-04T21:47:25.348Z,101079.34
2023-01-04T21:49:52.035Z,101080.19
2023-01-04T21:52:18.878Z,101075.03
2023-01-04T21:54:48.289Z,101079.25
2023-01-04T21:57:15.104Z,101078.31
2023-01-04T21:59:41.786Z,101070.34
2023-01-04T22:02:14.070Z,101069.72
2023-01-04T22:04:41.038Z,101061.22
2023-01-04T22:07:07.835Z,101066.88
2023-01-04T22:09:34.914Z,101066.06
2023-01-04T22:12:02.697Z,101063.00
2023-01-04T22:14:29.396Z,101067.63
2023-01-04T22:16:56.028Z,101061.31
2023-01-04T22:19:22.774Z,101056.91
2023-01-04T22:21:49.535Z,101052.50
2023-01-04T22:24:16.810Z,101042.97
2023-01-04T22:26:47.317Z,101043.72
2023-01-04T22:29:14.050Z,101035.19
2023-01-04T22:31:40.894Z,101038.75
2023-01-04T22:34:07.645Z,101032.63
2023-01-04T22:36:34.465Z,101025.75
2023-01-04T22:39:01.232Z,101026.47
2023-01-04T22:41:28.399Z,101010.09
2023-01-04T22:43:58.886Z,101005.75
2023-01-04T22:46:26.480Z,100999.59
2023-01-04T22:48:53.543Z,100992.44
2023-01-04T22:51:21.467Z,100987.28
2023-01-04T22:53:49.383Z,100981.22
2023-01-04T22:56:19.641Z,100979.50
2023-01-04T22:58:53.048Z,100984.72
2023-01-04T23:01:21.196Z,100976.81
2023-01-04T23:03:48.714Z,100969.59
2023-01-04T23:06:18.073Z,100963.50
2023-01-04T23:08:44.697Z,100955.66
2023-01-04T23:11:12.766Z,100952.94
2023-01-04T23:13:39.697Z,100953.78
2023-01-04T23:16:07.594Z,100959.09
2023-01-04T23:18:35.057Z,100957.38
2023-01-04T23:21:02.317Z,100959.13
2023-01-04T23:23:29.296Z,100959.09
2023-01-04T23:25:56.257Z,100953.06
2023-01-04T23:28:22.921Z,100950.31
2023-01-04T23:30:49.934Z,100947.78
2023-01-04T23:33:16.685Z,100931.94
2023-01-04T23:35:43.447Z,100937.28
2023-01-04T23:38:10.227Z,100929.41
2023-01-04T23:40:39.370Z,100918.94
2023-01-04T23:43:06.078Z,100923.41
2023-01-04T23:45:32.732Z,100921.50
2023-01-04T23:47:59.367Z,100915.31
2023-01-04T23:50:26.105Z,100911.91
2023-01-04T23:52:52.832Z,100911.84
2023-01-04T23:55:19.508Z,100897.78
2023-01-04T23:57:46.305Z,100906.62
